Time;durP1;ratioP1;P1;durP2;ratioP2;P2;SDS_P1;SDS_P2;PMS_P1;PMS_P2;Temp;Humidity;BMP_temperature;BMP_pressure;BME280_temperature;BME280_humidity;BME280_pressure;Samples;Min_cycle;Max_cycle;Signal;HPM_P1;HPM_P2
2023/05/03 00:02:09;;;;;;;3.53;2.90;;;6.20;99.90;;;;;;5013848;28;20202;-77
2023/05/03 00:04:37;;;;;;;5.70;3.00;;;6.20;99.90;;;;;;5013885;28;20204;-77
2023/05/03 00:07:03;;;;;;;4.43;3.03;;;6.10;99.90;;;;;;5013755;28;20203;-78
2023/05/03 00:09:30;;;;;;;4.00;2.63;;;6.10;99.90;;;;;;5013288;28;20203;-78
2023/05/03 00:11:59;;;;;;;4.73;2.70;;;6.10;99.90;;;;;;5013256;28;20282;-77
2023/05/03 00:14:27;;;;;;;4.10;2.73;;;6.00;99.90;;;;;;5018341;28;20637;-77
2023/05/03 00:16:54;;;;;;;2.70;2.43;;;6.00;99.90;;;;;;5032996;28;20281;-77
2023/05/03 00:19:21;;;;;;;5.07;2.77;;;6.00;99.90;;;;;;5022822;28;20515;-77
2023/05/03 00:21:48;;;;;;;3.47;2.77;;;6.00;99.90;;;;;;5013864;28;20201;-77
2023/05/03 00:24:15;;;;;;;5.43;2.80;;;6.00;99.90;;;;;;5012351;28;20237;-77
2023/05/03 00:26:42;;;;;;;3.90;2.63;;;6.00;99.90;;;;;;5013677;28;20195;-78
2023/05/03 00:29:08;;;;;;;6.97;3.80;;;5.90;99.90;;;;;;5013090;28;20223;-76
2023/05/03 00:31:37;;;;;;;3.30;2.90;;;5.90;99.90;;;;;;5013499;28;20226;-77
2023/05/03 00:34:04;;;;;;;3.57;2.90;;;5.90;99.90;;;;;;5013431;28;20237;-78
2023/05/03 00:36:31;;;;;;;3.37;2.70;;;5.90;99.90;;;;;;5012875;28;20203;-77
2023/05/03 00:38:57;;;;;;;3.77;2.90;;;5.90;99.90;;;;;;5013219;28;20202;-77
2023/05/03 00:41:25;;;;;;;3.37;2.77;;;5.90;99.90;;;;;;5012991;28;20508;-77
2023/05/03 00:43:51;;;;;;;4.97;2.60;;;5.90;99.90;;;;;;5013035;28;20203;-78
2023/05/03 00:46:18;;;;;;;3.70;2.40;;;5.90;99.90;;;;;;5013281;28;20210;-78
2023/05/03 00:48:49;;;;;;;3.30;2.50;;;5.90;99.90;;;;;;5012372;28;20324;-78
2023/05/03 00:51:17;;;;;;;3.37;2.40;;;5.90;99.90;;;;;;5012486;28;20196;-77
2023/05/03 00:53:44;;;;;;;5.73;2.97;;;5.90;99.90;;;;;;5012939;28;20239;-77
2023/05/03 00:56:11;;;;;;;2.83;2.40;;;5.90;99.90;;;;;;5013026;28;20651;-79
2023/05/03 00:58:39;;;;;;;4.53;2.70;;;5.90;99.90;;;;;;5012516;28;20694;-77
2023/05/03 01:01:06;;;;;;;4.40;2.93;;;5.80;99.90;;;;;;5012920;28;20261;-78
2023/05/03 01:03:35;;;;;;;4.53;2.70;;;5.80;99.90;;;;;;5012303;28;20204;-78
2023/05/03 01:06:11;;;;;;;4.33;2.80;;;5.80;99.90;;;;;;5024953;28;20257;-78
2023/05/03 01:08:44;;;;;;;3.67;2.70;;;5.80;99.90;;;;;;5032796;28;20183;-78
2023/05/03 01:11:17;;;;;;;3.77;2.37;;;5.80;99.90;;;;;;5032882;28;20202;-78
2023/05/03 01:13:54;;;;;;;3.70;2.40;;;5.70;99.90;;;;;;5030297;28;20265;-78
2023/05/03 01:16:29;;;;;;;6.73;3.40;;;5.70;99.90;;;;;;5030939;28;20214;-78
2023/05/03 01:19:00;;;;;;;5.33;3.20;;;5.70;99.90;;;;;;5031535;28;20279;-77
2023/05/03 01:21:32;;;;;;;4.90;3.07;;;5.70;99.90;;;;;;5032111;28;20330;-76
2023/05/03 01:24:04;;;;;;;3.67;2.80;;;5.60;99.90;;;;;;5016512;28;20294;-78
2023/05/03 01:26:33;;;;;;;5.47;3.00;;;5.60;99.90;;;;;;5012138;28;20257;-78
2023/05/03 01:29:00;;;;;;;3.27;2.90;;;5.50;99.90;;;;;;5012792;28;20226;-78
2023/05/03 01:31:31;;;;;;;3.67;2.60;;;5.50;99.90;;;;;;5012848;28;20216;-77
2023/05/03 01:34:07;;;;;;;3.53;2.60;;;5.50;99.90;;;;;;5012077;28;20309;-78
2023/05/03 01:36:36;;;;;;;3.00;2.70;;;5.50;99.90;;;;;;5013095;28;20278;-78
2023/05/03 01:39:09;;;;;;;3.10;2.80;;;5.40;99.90;;;;;;5011963;28;20623;-78
2023/05/03 01:41:40;;;;;;;2.83;2.50;;;5.40;99.90;;;;;;5011997;28;20222;-78
2023/05/03 01:44:08;;;;;;;4.00;2.67;;;5.40;99.90;;;;;;5013075;28;20203;-77
2023/05/03 01:46:42;;;;;;;3.00;2.70;;;5.40;99.90;;;;;;5011822;28;20203;-78
2023/05/03 01:49:09;;;;;;;2.87;2.57;;;5.40;99.90;;;;;;5011998;28;20234;-78
2023/05/03 01:51:36;;;;;;;3.30;2.40;;;5.40;99.90;;;;;;5012047;28;20278;-77
2023/05/03 01:54:03;;;;;;;3.20;2.50;;;5.40;99.90;;;;;;5011191;28;20215;-77
2023/05/03 01:56:30;;;;;;;3.67;2.40;;;5.40;99.90;;;;;;5012036;28;20202;-78
2023/05/03 01:58:59;;;;;;;3.33;2.57;;;5.40;99.90;;;;;;5012263;28;20482;-77
2023/05/03 02:01:26;;;;;;;4.43;3.30;;;5.40;99.90;;;;;;5017607;28;20507;-77
2023/05/03 02:03:53;;;;;;;4.20;3.23;;;5.40;99.90;;;;;;5031319;28;20195;-77
2023/05/03 02:06:20;;;;;;;3.77;3.10;;;5.30;99.90;;;;;;5031936;28;20193;-78
2023/05/03 02:08:47;;;;;;;4.90;3.10;;;5.30;99.90;;;;;;5031009;28;20285;-78
2023/05/03 02:11:14;;;;;;;5.30;2.90;;;5.30;99.90;;;;;;5030652;28;20649;-78
2023/05/03 02:13:41;;;;;;;3.33;2.90;;;5.20;99.90;;;;;;5031434;28;20269;-78
2023/05/03 02:16:09;;;;;;;3.77;2.70;;;5.20;99.90;;;;;;5030457;28;20205;-77
2023/05/03 02:18:36;;;;;;;3.67;2.70;;;5.20;99.90;;;;;;5023897;28;20215;-78
2023/05/03 02:21:04;;;;;;;4.70;3.00;;;5.20;99.90;;;;;;5011928;28;20245;-78
2023/05/03 02:23:31;;;;;;;4.27;2.50;;;5.20;99.90;;;;;;5011585;28;20285;-78
2023/05/03 02:25:58;;;;;;;3.57;2.60;;;5.20;99.90;;;;;;5012034;28;20202;-76
2023/05/03 02:28:25;;;;;;;3.87;2.57;;;5.20;99.90;;;;;;5024729;28;20253;-78
2023/05/03 02:30:52;;;;;;;5.47;2.47;;;5.20;99.90;;;;;;5030285;28;20485;-78
2023/05/03 02:33:21;;;;;;;7.07;3.20;;;5.20;99.90;;;;;;5012621;28;20265;-78
2023/05/03 02:35:48;;;;;;;3.83;2.77;;;5.20;99.90;;;;;;5011269;28;20597;-78
2023/05/03 02:38:15;;;;;;;3.93;3.10;;;5.20;99.90;;;;;;5011622;28;20195;-77
2023/05/03 02:40:42;;;;;;;6.27;2.93;;;5.20;99.90;;;;;;5011279;28;20211;-78
2023/05/03 02:43:09;;;;;;;6.03;4.10;;;5.20;99.90;;;;;;5011228;28;20233;-77
2023/05/03 02:45:36;;;;;;;3.77;3.23;;;5.20;99.90;;;;;;5030945;28;20506;-78
2023/05/03 02:48:03;;;;;;;4.90;3.20;;;5.20;99.90;;;;;;5031301;28;20206;-76
2023/05/03 02:50:31;;;;;;;6.47;3.53;;;5.10;99.90;;;;;;5012632;28;20286;-77
2023/05/03 02:52:58;;;;;;;3.70;2.93;;;5.00;99.90;;;;;;5010906;28;20657;-78
2023/05/03 02:55:25;;;;;;;4.43;3.47;;;5.00;99.90;;;;;;5012291;28;20337;-77
2023/05/03 02:57:52;;;;;;;5.23;3.50;;;5.00;99.90;;;;;;5010770;28;20226;-78
2023/05/03 03:00:19;;;;;;;3.83;2.93;;;4.90;99.90;;;;;;5011945;28;20526;-77
2023/05/03 03:02:46;;;;;;;3.57;2.90;;;4.80;99.90;;;;;;5011305;28;20207;-78
2023/05/03 03:05:13;;;;;;;4.23;2.70;;;4.80;99.90;;;;;;5010120;28;20246;-78
2023/05/03 03:07:42;;;;;;;5.37;2.80;;;4.80;99.90;;;;;;5011497;28;20237;-78
2023/05/03 03:10:09;;;;;;;3.23;2.60;;;4.80;99.90;;;;;;5012014;28;20211;-77
2023/05/03 03:12:37;;;;;;;3.47;2.53;;;4.80;99.90;;;;;;5013813;28;20613;-77
2023/05/03 03:15:05;;;;;;;4.03;2.90;;;4.80;99.90;;;;;;5014763;28;20306;-78
2023/05/03 03:17:32;;;;;;;4.43;2.80;;;4.80;99.90;;;;;;5014290;28;20420;-77
2023/05/03 03:20:00;;;;;;;4.80;2.97;;;4.70;99.90;;;;;;5014495;28;20234;-78
2023/05/03 03:22:27;;;;;;;4.53;3.17;;;4.70;99.90;;;;;;5014633;28;20544;-78
2023/05/03 03:24:55;;;;;;;5.83;3.47;;;4.70;99.90;;;;;;5015056;28;20191;-77
2023/05/03 03:27:22;;;;;;;5.33;2.63;;;4.60;99.90;;;;;;5020469;28;20227;-78
2023/05/03 03:29:49;;;;;;;2.77;2.30;;;4.60;99.90;;;;;;5033895;28;20229;-78
2023/05/03 03:32:16;;;;;;;3.83;2.43;;;4.50;99.90;;;;;;5033813;28;20194;-78
2023/05/03 03:34:43;;;;;;;4.07;2.73;;;4.50;99.90;;;;;;5034349;28;20313;-78
2023/05/03 03:37:10;;;;;;;3.23;2.87;;;4.50;99.90;;;;;;5019336;28;20199;-78
2023/05/03 03:39:38;;;;;;;2.87;2.67;;;4.50;99.90;;;;;;5013901;28;20301;-77
2023/05/03 03:42:07;;;;;;;3.33;2.80;;;4.50;99.90;;;;;;5013864;28;20199;-78
2023/05/03 03:44:34;;;;;;;4.10;2.80;;;4.50;99.90;;;;;;5014448;28;20656;-78
2023/05/03 03:47:01;;;;;;;3.57;2.50;;;4.50;99.90;;;;;;5014222;28;20315;-78
2023/05/03 03:49:27;;;;;;;4.17;2.57;;;4.50;99.90;;;;;;5014328;28;20192;-78
2023/05/03 03:51:54;;;;;;;3.17;2.40;;;4.50;99.90;;;;;;5014157;28;20223;-77
2023/05/03 03:54:21;;;;;;;3.30;3.00;;;4.50;99.90;;;;;;5013053;28;20325;-78
2023/05/03 03:56:49;;;;;;;3.73;2.67;;;4.50;99.90;;;;;;5014544;28;20200;-78
2023/05/03 03:59:18;;;;;;;2.87;2.40;;;4.50;99.90;;;;;;5014264;28;20627;-78
2023/05/03 04:01:45;;;;;;;3.40;2.63;;;4.50;99.90;;;;;;5013620;28;20572;-78
2023/05/03 04:04:12;;;;;;;3.33;3.00;;;4.50;99.90;;;;;;5014050;28;20290;-78
2023/05/03 04:06:39;;;;;;;3.00;2.60;;;4.50;99.90;;;;;;5013198;28;20211;-77
2023/05/03 04:09:06;;;;;;;6.67;3.10;;;4.50;99.90;;;;;;5013182;28;20213;-78
2023/05/03 04:11:33;;;;;;;4.20;3.00;;;4.50;99.90;;;;;;5014030;28;20230;-78
2023/05/03 04:14:00;;;;;;;4.07;2.77;;;4.50;99.90;;;;;;5013843;28;20238;-77
2023/05/03 04:16:28;;;;;;;2.87;2.67;;;4.50;99.90;;;;;;5013132;28;20298;-80
2023/05/03 04:18:55;;;;;;;5.23;2.57;;;4.50;99.90;;;;;;5014199;28;20581;-78
2023/05/03 04:21:22;;;;;;;4.50;2.80;;;4.60;99.90;;;;;;5013015;28;20192;-78
2023/05/03 04:23:49;;;;;;;2.60;2.40;;;4.60;99.90;;;;;;5013144;28;20214;-77
2023/05/03 04:26:17;;;;;;;3.70;2.50;;;4.60;99.90;;;;;;5013547;28;20286;-78
2023/05/03 04:28:44;;;;;;;4.60;2.97;;;4.60;99.90;;;;;;5013233;28;20223;-78
2023/05/03 04:31:11;;;;;;;3.30;2.70;;;4.70;99.90;;;;;;5013429;28;20199;-78
2023/05/03 04:33:40;;;;;;;4.63;2.87;;;4.70;99.90;;;;;;5013237;28;20215;-78
2023/05/03 04:36:09;;;;;;;4.03;3.40;;;4.70;99.90;;;;;;5012728;28;20310;-78
2023/05/03 04:38:36;;;;;;;4.83;3.07;;;4.80;99.90;;;;;;5013471;28;20213;-77
2023/05/03 04:41:03;;;;;;;3.73;3.10;;;4.80;99.90;;;;;;5013284;28;20278;-78
2023/05/03 04:43:31;;;;;;;3.50;2.97;;;4.80;99.90;;;;;;5012588;28;20211;-78
2023/05/03 04:45:58;;;;;;;3.93;2.73;;;4.90;99.90;;;;;;5013775;28;20207;-78
2023/05/03 04:48:25;;;;;;;3.70;3.03;;;4.90;99.90;;;;;;5013353;28;20199;-77
2023/05/03 04:50:53;;;;;;;4.97;3.30;;;5.00;99.90;;;;;;5012513;28;20203;-78
2023/05/03 04:53:20;;;;;;;3.93;3.10;;;5.10;99.90;;;;;;5012983;28;20210;-79
2023/05/03 04:55:47;;;;;;;5.27;4.00;;;5.10;99.90;;;;;;5013200;28;20726;-77
2023/05/03 04:58:14;;;;;;;3.90;3.10;;;5.20;99.90;;;;;;5021737;28;20213;-80
2023/05/03 05:00:41;;;;;;;4.10;3.30;;;5.30;99.90;;;;;;5032518;28;20595;-78
2023/05/03 05:03:08;;;;;;;4.17;2.87;;;5.30;99.90;;;;;;5032363;28;20215;-78
2023/05/03 05:05:35;;;;;;;6.00;3.30;;;5.40;99.90;;;;;;5018323;28;20206;-79
2023/05/03 05:08:03;;;;;;;5.07;3.03;;;5.50;99.90;;;;;;5013006;28;20290;-78
2023/05/03 05:10:30;;;;;;;5.27;2.83;;;5.60;99.90;;;;;;5028578;28;20294;-78
2023/05/03 05:12:57;;;;;;;3.83;2.80;;;5.70;99.90;;;;;;5032336;28;20249;-79
2023/05/03 05:15:24;;;;;;;3.70;2.77;;;5.80;99.90;;;;;;5018354;28;20524;-78
2023/05/03 05:17:51;;;;;;;3.40;2.70;;;5.90;99.90;;;;;;5012047;28;20198;-78
2023/05/03 05:20:18;;;;;;;4.93;2.80;;;6.00;99.90;;;;;;5012552;28;20282;-77
2023/05/03 05:22:45;;;;;;;5.37;2.83;;;6.00;99.90;;;;;;5019572;28;20209;-78
2023/05/03 05:25:13;;;;;;;5.27;3.30;;;6.10;99.90;;;;;;5032214;28;20286;-78
2023/05/03 05:27:40;;;;;;;5.57;3.10;;;6.20;99.90;;;;;;5032634;28;20199;-78
2023/05/03 05:30:08;;;;;;;5.93;3.00;;;6.30;99.90;;;;;;5030812;28;20607;-78
2023/05/03 05:32:35;;;;;;;3.97;2.60;;;6.50;99.90;;;;;;5031342;28;20634;-78
2023/05/03 05:35:02;;;;;;;4.87;2.70;;;6.60;99.90;;;;;;5032085;28;20623;-78
2023/05/03 05:37:29;;;;;;;3.90;2.83;;;6.70;99.90;;;;;;5022062;28;20203;-77
2023/05/03 05:39:56;;;;;;;5.53;3.43;;;6.80;99.90;;;;;;5031032;28;20202;-78
2023/05/03 05:42:25;;;;;;;5.73;3.27;;;6.90;99.90;;;;;;5024633;28;20258;-78
2023/05/03 05:44:52;;;;;;;6.20;3.07;;;7.00;99.90;;;;;;5012152;28;20290;-78
2023/05/03 05:47:20;;;;;;;5.23;2.70;;;7.10;99.90;;;;;;5012216;28;20203;-79
2023/05/03 05:49:47;;;;;;;3.53;3.03;;;7.10;99.90;;;;;;5012293;28;20273;-78
2023/05/03 05:52:13;;;;;;;4.90;3.30;;;7.20;99.90;;;;;;5012234;28;20253;-78
2023/05/03 05:54:40;;;;;;;5.13;3.00;;;7.30;99.90;;;;;;5011824;28;20207;-78
2023/05/03 05:57:07;;;;;;;3.77;2.37;;;7.40;99.90;;;;;;5017300;28;20204;-78
2023/05/03 05:59:36;;;;;;;4.43;2.10;;;7.50;99.90;;;;;;5031814;28;20226;-78
2023/05/03 06:02:03;;;;;;;4.90;2.30;;;7.60;99.90;;;;;;5029672;28;20277;-78
2023/05/03 06:04:30;;;;;;;3.07;2.30;;;7.70;99.90;;;;;;5012167;28;20195;-78
2023/05/03 06:06:57;;;;;;;4.53;2.80;;;7.70;99.90;;;;;;5011548;28;20498;-77
2023/05/03 06:09:23;;;;;;;5.63;2.40;;;7.80;99.90;;;;;;5012184;28;20576;-78
2023/05/03 06:11:50;;;;;;;7.20;2.50;;;7.90;99.90;;;;;;5012054;28;20234;-78
2023/05/03 06:14:19;;;;;;;2.73;2.07;;;7.90;99.90;;;;;;5011322;28;20227;-77
2023/05/03 06:16:47;;;;;;;3.57;2.00;;;8.00;99.90;;;;;;5011539;28;20225;-78
2023/05/03 06:19:14;;;;;;;3.80;2.00;;;8.10;99.90;;;;;;5012418;28;20199;-78
2023/05/03 06:21:41;;;;;;;3.10;1.90;;;8.20;99.90;;;;;;5010976;28;20241;-78
2023/05/03 06:24:08;;;;;;;2.97;1.43;;;8.20;99.90;;;;;;5012369;28;20207;-78
2023/05/03 06:26:34;;;;;;;4.73;1.83;;;8.30;99.90;;;;;;5012204;28;20210;-77
2023/05/03 06:29:03;;;;;;;3.90;1.90;;;8.30;99.90;;;;;;5011205;28;20706;-78
2023/05/03 06:31:29;;;;;;;2.60;1.83;;;8.40;99.90;;;;;;5013792;28;20206;-78
2023/05/03 06:33:58;;;;;;;2.67;1.67;;;8.50;99.90;;;;;;5011984;28;20283;-78
2023/05/03 06:36:26;;;;;;;3.30;1.50;;;8.50;99.90;;;;;;5011251;28;20199;-77
2023/05/03 06:38:53;;;;;;;3.87;1.77;;;8.60;99.90;;;;;;5011853;28;20294;-77
2023/05/03 06:41:20;;;;;;;3.97;2.20;;;8.70;99.90;;;;;;5011544;28;20215;-77
2023/05/03 06:43:47;;;;;;;5.20;1.57;;;8.80;39.20;;;;;;5011456;28;20203;-79
2023/05/03 06:46:14;;;;;;;5.03;1.90;;;8.90;1.00;;;;;;5031996;28;20289;-79
2023/05/03 06:48:41;;;;;;;3.97;1.60;;;9.00;1.00;;;;;;5035645;28;20268;-78
2023/05/03 06:51:09;;;;;;;4.80;1.60;;;9.00;1.00;;;;;;5034882;28;20649;-78
2023/05/03 06:53:36;;;;;;;4.30;1.60;;;9.10;19.60;;;;;;5029331;28;20203;-78
2023/05/03 06:56:04;;;;;;;4.73;2.30;;;9.10;1.00;;;;;;5015174;28;20310;-77
2023/05/03 06:58:31;;;;;;;3.20;1.80;;;9.30;1.00;;;;;;5015784;28;20199;-79
2023/05/03 07:00:58;;;;;;;2.57;1.80;;;9.30;1.00;;;;;;5015855;28;20200;-79
2023/05/03 07:03:24;;;;;;;2.77;1.37;;;9.40;1.00;;;;;;5014636;28;20698;-78
2023/05/03 07:05:51;;;;;;;3.47;1.37;;;9.50;1.00;;;;;;5014835;28;20848;-79
2023/05/03 07:08:20;;;;;;;4.57;1.80;;;9.50;10.30;;;;;;5030239;28;20277;-78
2023/05/03 07:11:27;;;;;;;3.30;1.37;;;9.50;1.00;;;;;;4984631;28;20534;-78
2023/05/03 07:13:54;;;;;;;1.60;1.40;;;9.60;1.00;;;;;;4948640;28;20238;-78
2023/05/03 07:16:21;;;;;;;4.40;1.60;;;9.60;1.00;;;;;;5032469;28;20318;-78
2023/05/03 07:18:49;;;;;;;4.47;1.70;;;9.60;1.00;;;;;;5032168;28;20286;-78
2023/05/03 07:21:29;;;;;;;;;;;;;;;;;;;;;
2023/05/03 07:23:58;;;;;;;5.77;1.60;;;10.50;1.00;;;;;;5029845;28;20212;-78
2023/05/03 07:26:25;;;;;;;3.17;1.00;;;10.90;1.00;;;;;;5032287;28;20207;-79
2023/05/03 07:28:52;;;;;;;2.80;1.13;;;11.20;99.90;;;;;;5032617;28;20339;-78
2023/05/03 07:31:22;;;;;;;1.70;0.93;;;11.20;99.90;;;;;;5045283;28;20293;-77
2023/05/03 07:33:49;;;;;;;3.97;1.20;;;11.30;99.90;;;;;;5034362;28;20294;-79
2023/05/03 07:36:15;;;;;;;3.87;1.03;;;11.30;99.90;;;;;;5014757;28;20223;-78
2023/05/03 07:38:42;;;;;;;2.07;0.90;;;11.40;99.90;;;;;;5013790;28;20203;-79
2023/05/03 07:41:10;;;;;;;2.27;0.90;;;11.60;99.90;;;;;;5014789;28;20286;-77
2023/05/03 07:43:37;;;;;;;1.93;0.80;;;11.90;99.90;;;;;;5014599;28;20310;-81
2023/05/03 07:46:04;;;;;;;2.80;0.90;;;11.90;99.90;;;;;;5014293;28;20294;-79
2023/05/03 07:48:31;;;;;;;2.47;0.90;;;11.80;99.90;;;;;;5027113;28;20218;-77
2023/05/03 07:50:58;;;;;;;1.40;0.80;;;11.50;99.90;;;;;;5034004;28;20209;-78
2023/05/03 07:53:25;;;;;;;2.97;1.63;;;11.50;99.90;;;;;;5034052;28;20285;-79
2023/05/03 07:55:55;;;;;;;2.37;1.00;;;11.40;99.90;;;;;;5033792;28;20217;-80
2023/05/03 07:58:23;;;;;;;1.30;0.73;;;11.80;99.90;;;;;;5014363;28;20265;-80
2023/05/03 08:00:51;;;;;;;3.50;1.20;;;12.30;99.90;;;;;;5013555;28;20203;-79
2023/05/03 08:03:18;;;;;;;4.30;1.17;;;12.60;99.90;;;;;;5013504;28;20497;-79
2023/05/03 08:05:45;;;;;;;1.87;0.80;;;13.10;99.90;;;;;;5013704;28;20310;-79
2023/05/03 08:08:13;;;;;;;1.60;1.00;;;13.50;99.90;;;;;;5013109;28;20592;-79
2023/05/03 08:10:39;;;;;;;2.87;1.27;;;13.70;99.90;;;;;;5013428;28;20443;-80
2023/05/03 08:13:07;;;;;;;2.73;0.90;;;14.20;99.90;;;;;;5013572;28;20222;-80
2023/05/03 08:15:35;;;;;;;1.10;0.80;;;14.50;99.90;;;;;;5018118;28;20315;-80
2023/05/03 08:18:02;;;;;;;5.13;1.10;;;14.60;99.90;;;;;;5033271;28;20293;-80
2023/05/03 08:20:29;;;;;;;1.77;1.02;;;15.00;99.90;;;;;;5032728;28;20226;-80
2023/05/03 08:22:56;;;;;;;2.22;0.80;;;15.20;99.90;;;;;;5015911;28;20207;-80
2023/05/03 08:25:24;;;;;;;1.77;0.77;;;15.60;99.90;;;;;;5013266;28;20290;-80
2023/05/03 08:27:51;;;;;;;1.33;0.80;;;16.00;99.90;;;;;;5012502;28;20540;-79
2023/05/03 08:30:20;;;;;;;2.53;1.13;;;16.10;99.90;;;;;;5013977;28;20228;-78
2023/05/03 08:32:48;;;;;;;2.17;0.95;;;16.50;99.90;;;;;;5013676;28;20211;-78
2023/05/03 08:35:16;;;;;;;1.38;0.80;;;16.60;99.90;;;;;;5012832;28;20309;-79
2023/05/03 08:37:44;;;;;;;4.30;0.98;;;16.50;99.90;;;;;;5013191;28;20629;-79
2023/05/03 08:40:12;;;;;;;2.03;1.10;;;16.60;99.90;;;;;;5013014;28;20219;-79
2023/05/03 08:42:41;;;;;;;2.67;0.85;;;16.70;99.90;;;;;;5012911;28;20204;-78
2023/05/03 08:45:11;;;;;;;1.42;0.90;;;16.90;99.90;;;;;;5027913;28;20210;-78
2023/05/03 08:47:39;;;;;;;2.33;1.10;;;16.80;99.90;;;;;;5029909;28;20217;-80
2023/05/03 08:50:09;;;;;;;1.98;0.80;;;16.30;99.90;;;;;;5030081;28;20237;-78
2023/05/03 08:52:36;;;;;;;4.47;1.10;;;15.60;99.90;;;;;;5030459;28;20213;-80
2023/05/03 08:55:04;;;;;;;1.52;0.82;;;14.90;99.90;;;;;;5031634;28;20219;-80
2023/05/03 08:57:31;;;;;;;3.95;1.00;;;14.30;99.90;;;;;;5032019;28;20202;-80
2023/05/03 09:00:00;;;;;;;4.25;1.23;;;13.90;99.90;;;;;;5024588;28;20214;-79
2023/05/03 09:02:27;;;;;;;3.67;1.13;;;13.70;99.90;;;;;;5027131;28;20696;-81
2023/05/03 09:04:55;;;;;;;2.80;1.20;;;13.50;99.90;;;;;;5028894;28;20516;-79
2023/05/03 09:07:23;;;;;;;2.80;0.93;;;13.50;99.90;;;;;;5032825;28;20213;-79
2023/05/03 09:09:50;;;;;;;2.67;1.00;;;13.50;99.90;;;;;;5024964;28;20238;-79
2023/05/03 09:12:35;;;;;;;2.63;1.00;;;13.40;99.90;;;;;;5031123;28;20263;-82
2023/05/03 09:15:05;;;;;;;3.47;1.10;;;13.20;99.90;;;;;;5028822;28;20234;-78
2023/05/03 09:17:32;;;;;;;4.30;1.10;;;12.90;99.90;;;;;;5031963;28;20210;-79
2023/05/03 09:20:00;;;;;;;2.47;1.00;;;12.50;99.90;;;;;;5027424;28;20211;-80
2023/05/03 09:22:32;;;;;;;3.47;1.23;;;12.40;99.90;;;;;;5032849;28;20199;-80
2023/05/03 09:25:00;;;;;;;3.27;1.40;;;12.30;99.90;;;;;;5032383;28;20222;-80
2023/05/03 09:27:28;;;;;;;1.80;1.00;;;12.40;99.90;;;;;;5033033;28;20191;-79
2023/05/03 09:29:55;;;;;;;8.37;1.93;;;12.50;99.90;;;;;;5016998;28;20273;-80
2023/05/03 09:32:23;;;;;;;3.70;1.80;;;12.50;99.90;;;;;;5012431;28;20210;-80
2023/05/03 09:34:50;;;;;;;2.20;1.37;;;12.30;99.90;;;;;;5013620;28;20219;-82
2023/05/03 09:37:17;;;;;;;7.43;2.20;;;12.50;99.90;;;;;;5029336;28;20213;-83
2023/05/03 09:39:47;;;;;;;6.70;2.10;;;12.80;99.90;;;;;;5017589;28;20229;-79
2023/05/03 09:42:15;;;;;;;4.57;1.33;;;12.90;99.90;;;;;;5012581;28;20287;-80
2023/05/03 09:44:50;;;;;;;2.60;1.10;;;12.80;99.90;;;;;;5032314;28;20203;-80
2023/05/03 09:47:17;;;;;;;5.63;1.60;;;13.00;99.90;;;;;;5024675;28;20199;-79
2023/05/03 09:49:44;;;;;;;3.67;1.50;;;13.30;99.90;;;;;;5024923;28;20209;-79
2023/05/03 09:52:12;;;;;;;1.97;1.30;;;13.40;99.90;;;;;;5031058;28;20286;-77
2023/05/03 09:54:39;;;;;;;3.97;1.30;;;13.70;99.90;;;;;;5030940;28;20587;-78
2023/05/03 09:57:09;;;;;;;4.15;1.52;;;14.00;99.90;;;;;;5031062;28;20469;-80
2023/05/03 09:59:38;;;;;;;2.60;1.40;;;13.90;99.90;;;;;;5011339;28;20214;-78
2023/05/03 10:02:06;;;;;;;4.47;1.80;;;13.90;99.90;;;;;;5011923;28;20195;-80
2023/05/03 10:04:42;;;;;;;2.00;1.30;;;13.90;99.90;;;;;;5011787;28;20227;-80
2023/05/03 10:07:14;;;;;;;3.40;1.47;;;14.30;99.90;;;;;;5011515;28;20540;-80
2023/05/03 10:09:44;;;;;;;1.63;1.20;;;14.60;99.90;;;;;;5011648;28;20274;-79
2023/05/03 10:12:16;;;;;;;2.80;1.33;;;14.90;99.90;;;;;;5011660;28;20561;-81
2023/05/03 10:14:44;;;;;;;3.27;1.50;;;15.20;99.90;;;;;;5010681;28;20230;-79
2023/05/03 10:17:16;;;;;;;4.55;1.60;;;15.40;99.90;;;;;;5011528;28;20227;-80
2023/05/03 10:19:52;;;;;;;1.90;1.35;;;15.40;99.90;;;;;;5011660;28;20215;-78
2023/05/03 10:22:19;;;;;;;3.25;1.70;;;15.30;99.90;;;;;;5014977;28;20191;-80
2023/05/03 10:25:13;;;;;;;7.75;1.75;;;15.50;99.90;;;;;;5015445;28;20265;-80
2023/05/03 10:27:51;;;;;;;4.38;1.60;;;15.60;99.90;;;;;;4981689;28;20244;-81
2023/05/03 10:30:32;;;;;;;2.03;1.48;;;15.00;99.90;;;;;;5035190;28;20190;-78
2023/05/03 10:32:59;;;;;;;4.60;1.58;;;14.90;99.90;;;;;;5035054;28;20183;-79
2023/05/03 10:35:27;;;;;;;3.70;1.93;;;14.70;99.90;;;;;;5032419;28;20193;-79
2023/05/03 10:37:56;;;;;;;3.50;1.77;;;14.60;99.90;;;;;;5015130;28;20199;-82
2023/05/03 10:40:23;;;;;;;2.07;1.60;;;14.50;99.90;;;;;;5015754;28;20207;-81
2023/05/03 10:42:55;;;;;;;5.37;2.30;;;14.60;99.90;;;;;;5014314;28;20574;-79
2023/05/03 10:45:24;;;;;;;4.63;2.07;;;14.80;99.90;;;;;;5014966;28;20751;-79
2023/05/03 10:48:19;;;;;;;3.97;1.73;;;14.80;99.90;;;;;;5028398;28;20771;-76
2023/05/03 10:50:47;;;;;;;3.30;1.87;;;14.70;99.90;;;;;;5035141;28;20257;-79
2023/05/03 10:53:37;;;;;;;3.60;1.85;;;14.70;99.90;;;;;;5022307;28;20527;-78
2023/05/03 10:56:06;;;;;;;3.83;1.80;;;14.70;99.90;;;;;;5015306;28;20619;-80
2023/05/03 10:58:37;;;;;;;1.60;1.30;;;14.50;99.90;;;;;;5015072;28;20524;-79
2023/05/03 11:01:04;;;;;;;5.00;1.83;;;14.60;99.90;;;;;;5015324;28;20203;-81
2023/05/03 11:03:43;;;;;;;4.20;1.90;;;14.90;99.90;;;;;;5014460;28;20210;-79
2023/05/03 11:06:10;;;;;;;8.00;2.60;;;14.90;99.90;;;;;;5014965;28;20204;-79
2023/05/03 11:08:37;;;;;;;5.93;2.03;;;14.70;99.90;;;;;;5015759;28;20203;-80
2023/05/03 11:11:08;;;;;;;5.55;2.83;;;15.00;99.90;;;;;;5015478;28;20200;-85
2023/05/03 11:13:36;;;;;;;2.67;2.15;;;15.00;99.90;;;;;;5016630;28;20199;-80
2023/05/03 11:16:04;;;;;;;3.30;2.57;;;15.10;99.90;;;;;;5015258;28;20322;-79
2023/05/03 11:18:32;;;;;;;3.83;1.88;;;15.10;99.90;;;;;;5015050;28;20204;-80
2023/05/03 11:21:00;;;;;;;4.78;1.92;;;15.10;99.90;;;;;;5027403;28;20766;-83
2023/05/03 11:23:29;;;;;;;4.75;2.00;;;15.40;99.90;;;;;;5035092;28;20856;-81
2023/05/03 11:25:57;;;;;;;2.10;1.50;;;15.70;99.90;;;;;;5035666;28;20540;-81
2023/05/03 11:28:24;;;;;;;3.08;2.10;;;15.90;99.90;;;;;;5020210;28;20223;-81
2023/05/03 11:30:52;;;;;;;2.83;1.83;;;16.00;99.90;;;;;;5013615;28;20203;-80
2023/05/03 11:33:19;;;;;;;4.65;2.72;;;16.10;99.90;;;;;;5033672;28;20214;-83
2023/05/03 11:35:46;;;;;;;5.22;2.28;;;16.00;99.90;;;;;;5031228;28;20514;-81
2023/05/03 11:38:13;;;;;;;3.85;2.10;;;15.60;99.90;;;;;;5014714;28;20672;-80
2023/05/03 11:40:40;;;;;;;2.45;2.00;;;15.70;99.90;;;;;;5015107;28;20203;-81
2023/05/03 11:43:07;;;;;;;4.25;2.10;;;15.60;99.90;;;;;;5014276;28;20204;-81
2023/05/03 11:45:41;;;;;;;2.63;1.80;;;15.60;99.90;;;;;;5015486;28;20535;-83
2023/05/03 11:48:11;;;;;;;4.05;2.25;;;15.50;99.90;;;;;;5014887;28;20285;-80
2023/05/03 11:50:46;;;;;;;4.25;1.95;;;15.30;99.90;;;;;;5015160;28;20213;-79
2023/05/03 11:53:13;;;;;;;3.72;2.38;;;15.30;99.90;;;;;;5014386;28;20514;-79
2023/05/03 11:55:42;;;;;;;4.03;2.00;;;15.50;99.90;;;;;;5026565;28;20209;-82
2023/05/03 11:58:12;;;;;;;6.20;2.20;;;15.70;99.90;;;;;;5034571;28;20206;-80
2023/05/03 12:00:43;;;;;;;2.10;1.67;;;16.00;99.90;;;;;;5032982;28;20680;-82
2023/05/03 12:03:17;;;;;;;5.32;2.25;;;16.00;99.90;;;;;;5034461;28;20205;-79
2023/05/03 12:05:43;;;;;;;12.45;3.08;;;16.10;99.90;;;;;;5033301;28;20199;-80
2023/05/03 12:08:11;;;;;;;5.50;2.42;;;16.30;99.90;;;;;;5021951;28;20213;-81
2023/05/03 12:10:38;;;;;;;6.07;2.33;;;16.40;99.90;;;;;;5033990;28;20206;-79
2023/05/03 12:13:05;;;;;;;5.35;2.53;;;16.20;99.90;;;;;;5032244;28;20210;-80
2023/05/03 12:15:33;;;;;;;3.30;2.33;;;16.30;99.90;;;;;;5034474;28;20292;-81
2023/05/03 12:18:02;;;;;;;4.43;2.40;;;15.90;99.90;;;;;;5018877;28;20302;-81
2023/05/03 12:20:31;;;;;;;3.88;2.20;;;16.10;99.90;;;;;;5013317;28;20640;-81
2023/05/03 12:23:01;;;;;;;3.65;2.00;;;16.20;99.90;;;;;;5014196;28;20257;-80
2023/05/03 12:25:29;;;;;;;5.20;2.50;;;15.80;99.90;;;;;;5014074;28;20203;-78
2023/05/03 12:27:57;;;;;;;4.75;2.67;;;15.60;99.90;;;;;;5012743;28;20208;-79
2023/05/03 12:30:24;;;;;;;3.58;2.45;;;15.80;99.90;;;;;;5013904;28;20207;-79
2023/05/03 12:32:51;;;;;;;4.50;2.22;;;15.70;99.90;;;;;;5013171;28;20208;-77
2023/05/03 12:35:19;;;;;;;4.63;2.30;;;15.80;99.90;;;;;;5012910;28;20762;-77
2023/05/03 12:37:48;;;;;;;4.93;2.47;;;15.70;99.90;;;;;;5013382;28;20650;-79
2023/05/03 12:40:16;;;;;;;6.30;2.72;;;15.80;99.90;;;;;;5013819;28;20225;-78
2023/05/03 12:42:44;;;;;;;4.60;2.42;;;15.80;99.90;;;;;;5030815;28;20273;-78
2023/05/03 12:45:11;;;;;;;6.43;2.58;;;16.00;99.90;;;;;;5032678;28;20336;-78
2023/05/03 12:47:38;;;;;;;3.78;2.75;;;15.90;99.90;;;;;;5017715;28;20503;-77
2023/05/03 12:50:08;;;;;;;4.35;2.33;;;15.70;99.90;;;;;;5012733;28;20675;-77
2023/05/03 12:52:35;;;;;;;6.78;2.65;;;15.60;99.90;;;;;;5012372;28;20206;-78
2023/05/03 12:55:04;;;;;;;4.45;2.78;;;15.70;99.90;;;;;;5011999;28;20225;-78
2023/05/03 12:57:32;;;;;;;5.97;2.70;;;15.80;99.90;;;;;;5013040;28;20310;-81
2023/05/03 12:59:58;;;;;;;4.75;2.83;;;16.00;99.90;;;;;;5013142;28;20527;-81
2023/05/03 13:02:25;;;;;;;3.88;2.95;;;16.10;99.90;;;;;;5031534;28;20568;-80